createdAt,value
2018-03-08T00:00:03.720Z,146.63
2018-03-08T00:02:31.093Z,156.03
2018-03-08T00:04:58.489Z,163.50
2018-03-08T00:07:25.884Z,167.73
2018-03-08T00:09:53.297Z,172.73
2018-03-08T00:12:20.662Z,155.60
2018-03-08T00:14:48.033Z,161.00
2018-03-08T00:17:15.425Z,156.83
2018-03-08T00:19:42.785Z,170.40
2018-03-08T00:22:10.182Z,175.93
2018-03-08T00:24:37.626Z,174.83
2018-03-08T00:27:05.002Z,160.73
2018-03-08T00:29:32.433Z,188.60
2018-03-08T00:31:59.788Z,185.97
2018-03-08T00:34:27.205Z,187.50
2018-03-08T00:36:54.593Z,175.07
2018-03-08T00:39:21.984Z,188.70
2018-03-08T00:41:49.344Z,157.33
2018-03-08T00:44:16.745Z,187.87
2018-03-08T00:46:44.112Z,184.10
2018-03-08T00:49:11.483Z,191.03
2018-03-08T00:51:38.897Z,184.60
2018-03-08T00:54:06.297Z,194.30
2018-03-08T00:56:33.657Z,182.40
2018-03-08T00:59:01.035Z,186.20
2018-03-08T01:01:28.449Z,184.73
2018-03-08T01:03:55.813Z,182.37
2018-03-08T01:06:23.242Z,190.77
2018-03-08T01:08:50.610Z,182.20
2018-03-08T01:11:18.040Z,186.03
2018-03-08T01:13:45.424Z,183.37
2018-03-08T01:16:12.837Z,176.93
2018-03-08T01:18:40.269Z,178.40
2018-03-08T01:21:07.628Z,185.20
2018-03-08T01:23:35.030Z,175.33
2018-03-08T01:26:02.393Z,177.00
2018-03-08T01:28:29.765Z,177.50
2018-03-08T01:30:57.169Z,170.33
2018-03-08T01:33:24.541Z,158.43
2018-03-08T01:35:51.897Z,165.57
2018-03-08T01:38:19.310Z,167.20
2018-03-08T01:40:46.671Z,174.53
2018-03-08T01:43:14.045Z,157.97
2018-03-08T01:45:41.449Z,170.23
2018-03-08T01:48:08.825Z,167.20
2018-03-08T01:50:36.238Z,164.97
2018-03-08T01:53:03.607Z,155.70
2018-03-08T01:55:31.022Z,160.83
2018-03-08T01:57:58.418Z,154.80
2018-03-08T02:00:25.829Z,159.60
2018-03-08T02:02:53.250Z,161.87
2018-03-08T02:05:20.633Z,152.20
2018-03-08T02:07:48.035Z,156.00
2018-03-08T02:10:15.445Z,153.70
2018-03-08T02:12:42.809Z,166.13
2018-03-08T02:15:10.219Z,157.90
2018-03-08T02:17:37.627Z,163.43
2018-03-08T02:20:04.995Z,162.20
2018-03-08T02:22:32.357Z,173.53
2018-03-08T02:24:59.763Z,151.33
2018-03-08T02:27:27.161Z,155.97
2018-03-08T02:29:54.573Z,168.00
2018-03-08T02:32:21.938Z,163.73
2018-03-08T02:34:49.301Z,146.83
2018-03-08T02:37:16.710Z,151.67
2018-03-08T02:39:44.079Z,163.40
2018-03-08T02:42:11.447Z,164.90
2018-03-08T02:44:38.841Z,156.40
2018-03-08T02:47:06.241Z,161.73
2018-03-08T02:49:33.618Z,161.50
2018-03-08T02:52:01.022Z,156.17
2018-03-08T02:54:28.429Z,147.13
2018-03-08T02:56:55.797Z,160.47
2018-03-08T02:59:23.158Z,152.37
2018-03-08T03:01:50.565Z,154.60
2018-03-08T03:04:17.965Z,157.37
2018-03-08T03:06:45.338Z,150.47
2018-03-08T03:09:12.736Z,170.23
2018-03-08T03:11:40.108Z,158.87
2018-03-08T03:14:07.475Z,161.60
2018-03-08T03:16:34.880Z,158.93
2018-03-08T03:19:02.292Z,161.33
2018-03-08T03:21:29.669Z,169.57
2018-03-08T03:23:57.073Z,162.53
2018-03-08T03:26:24.439Z,153.60
2018-03-08T03:28:51.798Z,165.90
2018-03-08T03:31:19.195Z,153.07
2018-03-08T03:33:46.566Z,159.13
2018-03-08T03:36:13.985Z,156.33
2018-03-08T03:38:41.350Z,155.87
2018-03-08T03:41:08.746Z,154.00
2018-03-08T03:43:36.109Z,162.47
2018-03-08T03:46:03.545Z,168.50
2018-03-08T03:48:30.908Z,164.23
2018-03-08T03:50:58.269Z,168.23
2018-03-08T03:53:25.672Z,162.27
2018-03-08T03:55:53.042Z,148.93
2018-03-08T03:58:20.442Z,164.03
2018-03-08T04:00:47.865Z,170.43
2018-03-08T04:03:15.233Z,161.17
2018-03-08T04:05:42.598Z,155.67
2018-03-08T04:08:10.009Z,154.23
2018-03-08T04:10:37.378Z,153.70
2018-03-08T04:13:04.794Z,149.73
2018-03-08T04:15:32.165Z,162.53
2018-03-08T04:17:59.580Z,159.90
2018-03-08T04:20:26.975Z,172.90
2018-03-08T04:22:54.349Z,178.20
2018-03-08T04:25:21.754Z,166.27
2018-03-08T04:27:49.125Z,167.50
2018-03-08T04:30:16.502Z,166.13
2018-03-08T04:32:43.893Z,163.27
2018-03-08T04:35:11.321Z,167.67
2018-03-08T04:37:38.694Z,178.23
2018-03-08T04:40:06.081Z,170.60
2018-03-08T04:42:33.477Z,171.43
2018-03-08T04:45:00.837Z,179.23
2018-03-08T04:47:28.251Z,168.77
2018-03-08T04:49:55.641Z,167.73
2018-03-08T04:52:23.042Z,179.87
2018-03-08T04:54:50.463Z,175.00
2018-03-08T04:57:17.823Z,162.57
2018-03-08T04:59:45.185Z,153.20
2018-03-08T05:02:18.588Z,165.07
2018-03-08T05:04:45.945Z,162.60
2018-03-08T05:07:13.349Z,158.33
2018-03-08T05:09:40.714Z,170.40
2018-03-08T05:12:08.075Z,163.37
2018-03-08T05:14:35.474Z,158.27
2018-03-08T05:17:02.901Z,150.57
2018-03-08T05:19:30.281Z,155.10
2018-03-08T05:21:57.697Z,154.17
2018-03-08T05:24:25.096Z,161.57
2018-03-08T05:26:52.457Z,149.57
2018-03-08T05:29:19.880Z,162.13
2018-03-08T05:31:47.273Z,165.23
2018-03-08T05:34:14.688Z,170.87
2018-03-08T05:36:42.070Z,174.47
2018-03-08T05:39:09.446Z,160.83
2018-03-08T05:41:36.847Z,160.80
2018-03-08T05:44:04.211Z,167.77
2018-03-08T05:46:31.574Z,164.33
2018-03-08T05:48:58.972Z,160.20
2018-03-08T05:51:26.334Z,181.53
2018-03-08T05:53:53.730Z,171.73
2018-03-08T05:56:21.122Z,172.43
2018-03-08T05:58:48.541Z,152.87
2018-03-08T06:01:20.872Z,161.57
2018-03-08T06:03:48.230Z,156.50
2018-03-08T06:06:15.898Z,171.03
2018-03-08T06:08:43.258Z,166.60
2018-03-08T06:11:10.669Z,158.17
2018-03-08T06:13:38.066Z,153.07
2018-03-08T06:16:05.432Z,133.17
2018-03-08T06:18:32.834Z,144.83
2018-03-08T06:21:00.210Z,139.90
2018-03-08T06:23:27.608Z,124.57
2018-03-08T06:25:54.966Z,131.07
2018-03-08T06:28:22.386Z,121.40
2018-03-08T06:30:49.750Z,115.67
2018-03-08T06:33:17.117Z,129.93
2018-03-08T06:35:44.518Z,121.80
2018-03-08T06:38:11.882Z,121.33
2018-03-08T06:40:39.281Z,127.13
2018-03-08T06:43:06.658Z,105.57
2018-03-08T06:45:34.026Z,106.27
2018-03-08T06:48:01.433Z,108.80
2018-03-08T06:50:28.793Z,115.10
2018-03-08T06:52:56.204Z,105.30
2018-03-08T06:55:23.603Z,104.53
2018-03-08T06:57:51.006Z,97.60
2018-03-08T07:00:18.367Z,85.70
2018-03-08T07:02:45.754Z,82.03
2018-03-08T07:05:13.113Z,77.77
2018-03-08T07:07:40.531Z,67.53
2018-03-08T07:10:07.887Z,79.63
2018-03-08T07:12:35.338Z,77.40
2018-03-08T07:15:02.719Z,82.27
2018-03-08T07:17:30.073Z,70.10
2018-03-08T07:19:57.494Z,63.90
2018-03-08T07:22:24.918Z,65.20
2018-03-08T07:24:52.279Z,63.03
2018-03-08T07:27:19.666Z,66.37
2018-03-08T07:29:47.030Z,65.90
2018-03-08T07:32:14.395Z,59.97
2018-03-08T07:34:41.786Z,55.47
2018-03-08T07:37:09.150Z,53.37
2018-03-08T07:39:36.545Z,53.57
2018-03-08T07:42:03.918Z,58.77
2018-03-08T07:44:31.269Z,50.13
2018-03-08T07:46:58.669Z,52.30
2018-03-08T07:49:26.041Z,46.87
2018-03-08T07:51:53.411Z,42.70
2018-03-08T07:54:20.797Z,44.23
2018-03-08T07:56:48.155Z,45.30
2018-03-08T07:59:15.675Z,41.50
2018-03-08T08:01:43.067Z,41.50
2018-03-08T08:04:25.334Z,43.70
2018-03-08T08:06:58.609Z,36.37
2018-03-08T08:09:26.013Z,35.67
2018-03-08T08:11:53.420Z,31.60
2018-03-08T08:14:20.803Z,34.20
2018-03-08T08:16:48.251Z,41.37
2018-03-08T08:19:15.654Z,33.43
2018-03-08T08:21:43.008Z,34.73
2018-03-08T08:24:10.409Z,31.07
2018-03-08T08:26:37.798Z,33.87
2018-03-08T08:29:05.170Z,34.93
2018-03-08T08:31:32.565Z,34.90
2018-03-08T08:34:00.040Z,38.60
2018-03-08T08:36:27.433Z,39.80
2018-03-08T08:38:54.870Z,34.50
2018-03-08T08:41:22.290Z,32.57
2018-03-08T08:43:49.696Z,34.13
2018-03-08T08:46:17.083Z,32.93
2018-03-08T08:48:44.498Z,32.70
2018-03-08T08:51:11.873Z,30.57
2018-03-08T08:53:39.238Z,29.00
2018-03-08T08:56:06.662Z,30.80
2018-03-08T08:58:34.045Z,28.83
2018-03-08T09:01:01.434Z,33.00
2018-03-08T09:03:28.803Z,28.17
2018-03-08T09:05:56.221Z,36.27
2018-03-08T09:08:23.622Z,32.20
2018-03-08T09:10:51.283Z,31.50
2018-03-08T09:13:18.639Z,27.57
2018-03-08T09:15:46.041Z,33.33
2018-03-08T09:18:13.423Z,27.43
2018-03-08T09:20:41.672Z,30.50
2018-03-08T09:23:09.137Z,29.17
2018-03-08T09:25:36.505Z,26.83
2018-03-08T09:28:03.905Z,26.00
2018-03-08T09:30:31.319Z,25.87
2018-03-08T09:32:58.680Z,24.17
2018-03-08T09:35:26.079Z,28.50
2018-03-08T09:37:53.433Z,27.50
2018-03-08T09:40:20.785Z,24.33
2018-03-08T09:42:48.182Z,22.90
2018-03-08T09:45:15.557Z,22.53
2018-03-08T09:47:42.952Z,25.23
2018-03-08T09:50:10.350Z,25.00
2018-03-08T09:52:37.714Z,25.67
2018-03-08T09:55:05.114Z,28.77
2018-03-08T09:57:32.474Z,27.27
2018-03-08T09:59:59.874Z,29.60
2018-03-08T10:02:27.239Z,29.47
2018-03-08T10:04:54.634Z,26.20
2018-03-08T10:07:22.032Z,31.63
2018-03-08T10:09:49.390Z,29.17
2018-03-08T10:12:16.790Z,31.43
2018-03-08T10:14:44.207Z,32.60
2018-03-08T10:17:11.598Z,35.03
2018-03-08T10:19:38.962Z,37.97
2018-03-08T10:22:06.386Z,45.07
2018-03-08T10:24:33.781Z,50.13
2018-03-08T10:27:01.155Z,47.43
2018-03-08T10:29:28.553Z,49.00
2018-03-08T10:31:55.927Z,52.27
2018-03-08T10:34:23.286Z,49.50
2018-03-08T10:36:50.686Z,53.70
2018-03-08T10:39:29.764Z,56.07
2018-03-08T10:41:45.437Z,53.70
2018-03-08T10:44:12.855Z,53.50
2018-03-08T10:46:40.222Z,46.67
2018-03-08T10:49:07.602Z,49.53
2018-03-08T10:51:35.014Z,47.77
2018-03-08T10:54:02.370Z,51.30
2018-03-08T10:56:29.725Z,50.80
2018-03-08T10:58:57.130Z,44.93
2018-03-08T11:01:25.271Z,46.17
2018-03-08T11:03:55.478Z,50.57
2018-03-08T11:06:28.758Z,46.50
2018-03-08T11:08:56.144Z,49.53
2018-03-08T11:11:23.506Z,45.37
2018-03-08T11:13:50.913Z,50.10
2018-03-08T11:16:18.278Z,43.47
2018-03-08T11:18:45.641Z,46.77
2018-03-08T11:21:13.025Z,42.57
2018-03-08T11:23:40.468Z,44.60
2018-03-08T11:26:07.825Z,42.77
2018-03-08T11:28:35.179Z,41.67
2018-03-08T11:31:02.585Z,43.20
2018-03-08T11:33:29.956Z,45.27
2018-03-08T11:35:57.313Z,42.93
2018-03-08T11:38:24.718Z,40.70
2018-03-08T11:40:52.077Z,39.33
2018-03-08T11:43:19.706Z,46.07
2018-03-08T11:45:47.116Z,37.97
2018-03-08T11:48:14.503Z,37.77
2018-03-08T11:50:41.870Z,36.77
2018-03-08T11:53:09.419Z,35.57
2018-03-08T11:55:36.648Z,34.00
2018-03-08T11:58:04.038Z,32.00
2018-03-08T12:00:31.406Z,32.30
2018-03-08T12:02:58.824Z,33.47
2018-03-08T12:05:26.217Z,34.20
2018-03-08T12:07:53.574Z,34.70
2018-03-08T12:10:21.014Z,34.57
2018-03-08T12:12:48.369Z,32.80
2018-03-08T12:15:15.727Z,36.67
2018-03-08T12:17:43.115Z,33.33
2018-03-08T12:20:10.473Z,30.33
2018-03-08T12:22:37.866Z,31.90
2018-03-08T12:25:05.221Z,30.67
2018-03-08T12:27:32.574Z,30.63
2018-03-08T12:29:59.969Z,30.53
2018-03-08T12:32:27.325Z,30.67
2018-03-08T12:34:54.713Z,31.63
2018-03-08T12:37:22.126Z,29.83
2018-03-08T12:39:49.516Z,29.10
2018-03-08T12:42:16.901Z,30.33
2018-03-08T12:44:44.301Z,32.83
2018-03-08T12:47:11.670Z,29.97
2018-03-08T12:49:39.040Z,32.33
2018-03-08T12:52:06.441Z,28.93
2018-03-08T12:54:33.793Z,29.00
2018-03-08T12:57:01.218Z,30.63
2018-03-08T12:59:28.573Z,30.67
2018-03-08T13:01:55.934Z,30.93
2018-03-08T13:04:23.358Z,28.70
2018-03-08T13:06:50.731Z,33.60
2018-03-08T13:09:18.089Z,32.60
2018-03-08T13:11:45.521Z,31.00
2018-03-08T13:14:12.902Z,32.13
2018-03-08T13:16:40.318Z,33.47
2018-03-08T13:19:07.674Z,32.33
2018-03-08T13:21:35.038Z,35.80
2018-03-08T13:24:02.479Z,35.50
2018-03-08T13:26:29.871Z,30.90
2018-03-08T13:28:57.221Z,29.70
2018-03-08T13:31:24.582Z,30.00
2018-03-08T13:33:51.978Z,29.23
2018-03-08T13:36:19.410Z,27.30
2018-03-08T13:38:46.766Z,29.70
2018-03-08T13:41:14.160Z,24.23
2018-03-08T13:43:41.593Z,31.13
2018-03-08T13:46:08.954Z,25.83
2018-03-08T13:48:36.318Z,31.43
2018-03-08T13:51:03.712Z,28.17
2018-03-08T13:53:31.070Z,23.93
2018-03-08T13:55:58.453Z,25.03
2018-03-08T13:58:25.853Z,22.67
2018-03-08T14:00:53.209Z,22.93
2018-03-08T14:03:20.587Z,22.47
2018-03-08T14:05:48.010Z,20.00
2018-03-08T14:08:15.363Z,21.50
2018-03-08T14:10:42.765Z,23.90
2018-03-08T14:13:10.120Z,20.03
2018-03-08T14:15:37.488Z,18.67
2018-03-08T14:18:04.889Z,22.27
2018-03-08T14:20:32.254Z,18.23
2018-03-08T14:22:59.614Z,23.60
2018-03-08T14:25:27.031Z,17.33
2018-03-08T14:27:54.389Z,18.67
2018-03-08T14:30:21.769Z,20.40
2018-03-08T14:32:49.186Z,15.57
2018-03-08T14:35:16.582Z,18.90
2018-03-08T14:37:43.937Z,22.47
2018-03-08T14:40:11.325Z,26.20
2018-03-08T14:42:38.709Z,16.10
2018-03-08T14:45:06.105Z,17.17
2018-03-08T14:47:33.532Z,12.00
2018-03-08T14:50:00.866Z,12.40
2018-03-08T14:52:28.244Z,10.20
2018-03-08T14:54:55.610Z,13.20
2018-03-08T14:57:22.994Z,12.77
2018-03-08T14:59:50.389Z,13.20
2018-03-08T15:02:17.734Z,8.47
2018-03-08T15:04:45.094Z,8.80
2018-03-08T15:07:12.472Z,9.33
2018-03-08T15:09:39.818Z,11.97
2018-03-08T15:12:07.174Z,7.70
2018-03-08T15:14:34.562Z,8.00
2018-03-08T15:17:01.926Z,7.07
2018-03-08T15:19:29.276Z,7.13
2018-03-08T15:21:56.656Z,7.07
2018-03-08T15:24:24.025Z,8.20
2018-03-08T15:26:51.401Z,7.23
2018-03-08T15:29:18.745Z,7.40
2018-03-08T15:31:46.133Z,6.37
2018-03-08T15:34:13.499Z,7.07
2018-03-08T15:36:40.850Z,6.87
2018-03-08T15:39:08.225Z,6.83
2018-03-08T15:41:35.571Z,7.33
2018-03-08T15:44:02.949Z,9.13
2018-03-08T15:46:30.305Z,7.33
2018-03-08T15:48:57.680Z,6.30
2018-03-08T15:51:25.040Z,7.07
2018-03-08T15:53:52.474Z,8.63
2018-03-08T15:56:19.856Z,8.97
2018-03-08T15:58:47.231Z,9.00
2018-03-08T16:01:14.573Z,6.40
2018-03-08T16:03:41.961Z,6.13
2018-03-08T16:06:09.313Z,6.30
2018-03-08T16:08:46.406Z,7.63
2018-03-08T16:11:13.801Z,8.67
2018-03-08T16:13:41.177Z,13.13
2018-03-08T16:16:08.587Z,21.37
2018-03-08T16:18:35.939Z,15.30
2018-03-08T16:21:03.289Z,12.97
2018-03-08T16:23:30.693Z,15.40
2018-03-08T16:25:58.065Z,13.50
2018-03-08T16:28:25.454Z,19.20
2018-03-08T16:30:52.815Z,13.20
2018-03-08T16:33:20.172Z,15.27
2018-03-08T16:35:47.579Z,12.40
2018-03-08T16:38:15.006Z,13.90
2018-03-08T16:40:42.362Z,13.40
2018-03-08T16:43:09.709Z,15.97
2018-03-08T16:45:37.133Z,15.13
2018-03-08T16:48:04.495Z,15.00
2018-03-08T16:50:31.893Z,10.63
2018-03-08T16:52:59.245Z,10.23
2018-03-08T16:55:26.668Z,9.43
2018-03-08T16:57:54.018Z,9.40
2018-03-08T17:00:21.404Z,10.97
2018-03-08T17:02:48.836Z,10.30
2018-03-08T17:05:16.375Z,10.93
2018-03-08T17:07:44.030Z,14.50
2018-03-08T17:10:11.553Z,14.63
2018-03-08T17:12:38.918Z,13.47
2018-03-08T17:15:06.328Z,12.57
2018-03-08T17:17:33.738Z,10.10
2018-03-08T17:20:01.148Z,14.80
2018-03-08T17:22:28.743Z,13.47
2018-03-08T17:24:56.184Z,15.70
2018-03-08T17:27:23.626Z,14.57
2018-03-08T17:29:50.978Z,15.20
2018-03-08T17:32:18.409Z,14.90
2018-03-08T17:34:45.914Z,17.20
2018-03-08T17:37:13.326Z,15.17
2018-03-08T17:39:40.694Z,15.53
2018-03-08T17:42:08.059Z,12.13
2018-03-08T17:44:35.651Z,13.23
2018-03-08T17:47:03.020Z,14.33
2018-03-08T17:49:30.430Z,12.43
2018-03-08T17:51:58.734Z,13.60
2018-03-08T17:54:26.191Z,15.67
2018-03-08T17:56:53.598Z,16.43
2018-03-08T17:59:21.412Z,19.33
2018-03-08T18:01:48.838Z,17.03
2018-03-08T18:04:16.199Z,14.10
2018-03-08T18:06:43.563Z,11.70
2018-03-08T18:09:10.990Z,12.60
2018-03-08T18:11:38.363Z,11.87
2018-03-08T18:14:05.745Z,12.40
2018-03-08T18:16:33.097Z,11.50
2018-03-08T18:19:00.486Z,13.93
2018-03-08T18:21:27.890Z,13.33
2018-03-08T18:23:55.368Z,14.17
2018-03-08T18:26:22.741Z,15.47
2018-03-08T18:28:50.220Z,13.07
2018-03-08T18:31:17.608Z,13.90
2018-03-08T18:33:44.983Z,12.57
2018-03-08T18:36:12.374Z,13.60
2018-03-08T18:38:39.736Z,13.23
2018-03-08T18:41:07.301Z,13.10
2018-03-08T18:43:34.717Z,12.43
2018-03-08T18:46:02.174Z,14.20
2018-03-08T18:48:29.586Z,16.43
2018-03-08T18:50:56.946Z,16.20
2018-03-08T18:53:24.474Z,14.30
2018-03-08T18:55:51.900Z,14.70
2018-03-08T18:58:25.340Z,13.77
2018-03-08T19:00:52.708Z,14.10
2018-03-08T19:03:20.106Z,17.90
2018-03-08T19:05:47.597Z,14.07
2018-03-08T19:08:15.022Z,14.40
2018-03-08T19:10:42.787Z,14.60
2018-03-08T19:13:10.259Z,17.67
2018-03-08T19:15:37.648Z,12.23
2018-03-08T19:18:05.005Z,15.63
2018-03-08T19:20:32.422Z,14.03
2018-03-08T19:23:00.073Z,13.43
2018-03-08T19:25:27.513Z,12.13
2018-03-08T19:27:55.089Z,12.13
2018-03-08T19:30:22.854Z,16.37
2018-03-08T19:32:50.379Z,11.80
2018-03-08T19:35:17.873Z,14.80
2018-03-08T19:37:45.254Z,13.27
2018-03-08T19:40:12.678Z,13.33
2018-03-08T19:42:40.045Z,14.60
2018-03-08T19:45:07.698Z,11.13
2018-03-08T19:47:35.119Z,15.37
2018-03-08T19:50:02.483Z,11.03
2018-03-08T19:52:29.882Z,10.90
2018-03-08T19:54:57.249Z,11.70
2018-03-08T19:57:24.631Z,11.70
2018-03-08T19:59:52.116Z,9.97
2018-03-08T20:02:19.619Z,11.60
2018-03-08T20:04:47.047Z,9.07
2018-03-08T20:07:15.119Z,12.00
2018-03-08T20:09:43.034Z,14.20
2018-03-08T20:12:10.648Z,11.63
2018-03-08T20:14:38.412Z,12.17
2018-03-08T20:17:06.075Z,12.07
2018-03-08T20:19:33.735Z,13.73
2018-03-08T20:22:01.503Z,19.10
2018-03-08T20:24:29.277Z,15.10
2018-03-08T20:26:57.130Z,10.40
2018-03-08T20:29:24.949Z,14.80
2018-03-08T20:31:52.658Z,14.07
2018-03-08T20:34:20.424Z,12.30
2018-03-08T20:36:47.982Z,12.80
2018-03-08T20:39:15.349Z,14.60
2018-03-08T20:41:42.762Z,12.10
2018-03-08T20:44:10.165Z,14.60
2018-03-08T20:46:37.524Z,14.67
2018-03-08T20:49:04.882Z,12.80
2018-03-08T20:51:32.274Z,12.87
2018-03-08T20:53:59.659Z,10.27
2018-03-08T20:56:27.048Z,12.87
2018-03-08T20:58:54.501Z,13.67
2018-03-08T21:01:21.873Z,13.87
2018-03-08T21:03:49.284Z,18.80
2018-03-08T21:06:16.663Z,13.17
2018-03-08T21:08:44.177Z,16.23
2018-03-08T21:11:11.712Z,18.30
2018-03-08T21:13:39.082Z,12.57
2018-03-08T21:16:06.504Z,13.40
2018-03-08T21:18:33.879Z,11.40
2018-03-08T21:21:02.238Z,12.97
2018-03-08T21:23:29.601Z,15.57
2018-03-08T21:25:56.973Z,11.53
2018-03-08T21:28:24.361Z,16.03
2018-03-08T21:30:51.734Z,12.97
2018-03-08T21:33:19.133Z,9.97
2018-03-08T21:35:46.578Z,16.43
2018-03-08T21:38:13.938Z,11.40
2018-03-08T21:40:41.299Z,11.63
2018-03-08T21:43:08.711Z,14.90
2018-03-08T21:45:36.098Z,16.70
2018-03-08T21:48:03.505Z,14.37
2018-03-08T21:50:30.926Z,21.10
2018-03-08T21:52:58.281Z,11.07
2018-03-08T21:55:25.718Z,12.13
2018-03-08T21:57:53.098Z,14.73
2018-03-08T22:00:20.462Z,15.30
2018-03-08T22:02:47.873Z,13.00
2018-03-08T22:05:15.228Z,10.10
2018-03-08T22:07:42.652Z,13.63
2018-03-08T22:10:10.018Z,12.30
2018-03-08T22:12:37.437Z,15.97
2018-03-08T22:15:04.842Z,15.33
2018-03-08T22:17:32.197Z,15.23
2018-03-08T22:19:59.648Z,12.27
2018-03-08T22:22:27.042Z,11.60
2018-03-08T22:24:54.452Z,13.33
2018-03-08T22:27:21.834Z,18.57
2018-03-08T22:29:49.193Z,15.77
2018-03-08T22:32:16.590Z,12.33
2018-03-08T22:34:43.942Z,14.37
2018-03-08T22:37:11.318Z,13.33
2018-03-08T22:39:38.734Z,11.30
2018-03-08T22:42:06.089Z,15.02
2018-03-08T22:44:33.477Z,14.60
2018-03-08T22:47:00.829Z,15.77
2018-03-08T22:49:28.221Z,13.53
2018-03-08T22:51:55.607Z,17.90
2018-03-08T22:54:22.962Z,17.77
2018-03-08T22:56:50.365Z,26.13
2018-03-08T22:59:17.726Z,22.57
2018-03-08T23:01:59.999Z,21.33
2018-03-08T23:04:27.418Z,13.83
2018-03-08T23:06:54.821Z,10.07
2018-03-08T23:09:22.952Z,12.50
2018-03-08T23:11:50.296Z,14.80
2018-03-08T23:14:17.685Z,35.93
2018-03-08T23:16:45.090Z,19.33
2018-03-08T23:19:12.480Z,30.60
2018-03-08T23:21:39.833Z,9.70
2018-03-08T23:24:07.238Z,8.40
2018-03-08T23:26:34.629Z,8.30
2018-03-08T23:29:01.977Z,10.07
2018-03-08T23:31:29.380Z,10.53
2018-03-08T23:33:56.737Z,8.53
2018-03-08T23:36:24.131Z,8.70
2018-03-08T23:38:51.504Z,7.90
2018-03-08T23:41:18.866Z,7.03
2018-03-08T23:43:46.246Z,6.77
2018-03-08T23:46:13.611Z,12.80
2018-03-08T23:48:40.989Z,7.40
2018-03-08T23:51:08.333Z,7.17
2018-03-08T23:53:35.725Z,6.93
2018-03-08T23:56:03.082Z,6.07
2018-03-08T23:58:30.432Z,9.63
